sensor_id;sensor_type;location;lat;lon;timestamp;pressure;altitude;pressure_sealevel;temperature;humidity
6090;BME280;3073;42.660;23.316;2023-05-25T00:00:33;94473.94;;;24.90;56.85
6090;BME280;3073;42.660;23.316;2023-05-25T00:03:00;94470.41;;;24.62;57.20
6090;BME280;3073;42.660;23.316;2023-05-25T00:05:28;94477.25;;;24.66;57.89
6090;BME280;3073;42.660;23.316;2023-05-25T00:07:57;94478.91;;;24.71;57.60
6090;BME280;3073;42.660;23.316;2023-05-25T00:10:26;94480.50;;;24.51;58.08
6090;BME280;3073;42.660;23.316;2023-05-25T00:12:54;94483.34;;;24.25;58.98
6090;BME280;3073;42.660;23.316;2023-05-25T00:15:21;94487.22;;;24.52;59.09
6090;BME280;3073;42.660;23.316;2023-05-25T00:17:48;94484.44;;;24.69;57.91
6090;BME280;3073;42.660;23.316;2023-05-25T00:20:15;94492.50;;;24.76;58.25
6090;BME280;3073;42.660;23.316;2023-05-25T00:22:42;94489.69;;;24.81;58.10
6090;BME280;3073;42.660;23.316;2023-05-25T00:25:10;94492.31;;;24.93;57.63
6090;BME280;3073;42.660;23.316;2023-05-25T00:27:38;94483.69;;;24.81;57.93
6090;BME280;3073;42.660;23.316;2023-05-25T00:30:06;94487.69;;;24.66;58.56
6090;BME280;3073;42.660;23.316;2023-05-25T00:32:33;94487.38;;;24.80;58.05
6090;BME280;3073;42.660;23.316;2023-05-25T00:35:00;94480.13;;;24.85;58.02
6090;BME280;3073;42.660;23.316;2023-05-25T00:37:27;94485.44;;;24.65;58.65
6090;BME280;3073;42.660;23.316;2023-05-25T00:39:54;94485.53;;;24.68;58.23
6090;BME280;3073;42.660;23.316;2023-05-25T00:42:21;94492.19;;;24.33;59.31
6090;BME280;3073;42.660;23.316;2023-05-25T00:44:50;94496.84;;;24.06;60.55
6090;BME280;3073;42.660;23.316;2023-05-25T00:47:17;94498.22;;;22.83;65.69
6090;BME280;3073;42.660;23.316;2023-05-25T00:49:43;94494.34;;;23.27;64.20
6090;BME280;3073;42.660;23.316;2023-05-25T00:52:11;94496.16;;;23.27;63.75
6090;BME280;3073;42.660;23.316;2023-05-25T00:54:38;94491.66;;;23.65;62.80
6090;BME280;3073;42.660;23.316;2023-05-25T00:57:06;94495.97;;;24.02;61.15
6090;BME280;3073;42.660;23.316;2023-05-25T00:59:35;94491.91;;;24.14;60.80
6090;BME280;3073;42.660;23.316;2023-05-25T01:02:08;94491.25;;;23.96;61.77
6090;BME280;3073;42.660;23.316;2023-05-25T01:04:38;94489.56;;;24.33;60.35
6090;BME280;3073;42.660;23.316;2023-05-25T01:07:07;94498.13;;;24.54;59.17
6090;BME280;3073;42.660;23.316;2023-05-25T01:09:38;94496.63;;;24.32;59.30
6090;BME280;3073;42.660;23.316;2023-05-25T01:12:08;94507.13;;;23.91;60.55
6090;BME280;3073;42.660;23.316;2023-05-25T01:14:38;94502.78;;;23.74;61.40
6090;BME280;3073;42.660;23.316;2023-05-25T01:17:06;94510.41;;;23.58;62.26
6090;BME280;3073;42.660;23.316;2023-05-25T01:19:34;94504.81;;;23.69;61.58
6090;BME280;3073;42.660;23.316;2023-05-25T01:22:08;94503.19;;;23.64;61.73
6090;BME280;3073;42.660;23.316;2023-05-25T01:24:43;94497.06;;;23.60;62.04
6090;BME280;3073;42.660;23.316;2023-05-25T01:27:13;94495.97;;;22.73;65.02
6090;BME280;3073;42.660;23.316;2023-05-25T01:29:43;94492.22;;;22.19;68.35
6090;BME280;3073;42.660;23.316;2023-05-25T01:32:12;94495.63;;;23.13;64.04
6090;BME280;3073;42.660;23.316;2023-05-25T01:34:40;94490.41;;;23.21;63.86
6090;BME280;3073;42.660;23.316;2023-05-25T01:37:10;94493.34;;;22.73;65.95
6090;BME280;3073;42.660;23.316;2023-05-25T01:39:37;94483.56;;;22.70;65.77
6090;BME280;3073;42.660;23.316;2023-05-25T01:42:04;94478.56;;;23.24;63.71
6090;BME280;3073;42.660;23.316;2023-05-25T01:44:31;94474.25;;;23.57;62.72
6090;BME280;3073;42.660;23.316;2023-05-25T01:47:02;94469.94;;;23.61;61.63
6090;BME280;3073;42.660;23.316;2023-05-25T01:49:35;94463.84;;;23.28;62.69
6090;BME280;3073;42.660;23.316;2023-05-25T01:52:07;94466.09;;;23.58;61.74
6090;BME280;3073;42.660;23.316;2023-05-25T01:54:43;94467.13;;;23.45;62.32
6090;BME280;3073;42.660;23.316;2023-05-25T01:57:12;94467.50;;;23.56;61.76
6090;BME280;3073;42.660;23.316;2023-05-25T01:59:43;94468.53;;;23.64;61.31
6090;BME280;3073;42.660;23.316;2023-05-25T02:02:12;94469.34;;;23.76;61.00
6090;BME280;3073;42.660;23.316;2023-05-25T02:04:41;94467.38;;;23.73;61.12
6090;BME280;3073;42.660;23.316;2023-05-25T02:07:07;94476.88;;;23.57;61.90
6090;BME280;3073;42.660;23.316;2023-05-25T02:09:36;94476.41;;;23.76;62.13
6090;BME280;3073;42.660;23.316;2023-05-25T02:12:04;94482.06;;;23.57;63.31
6090;BME280;3073;42.660;23.316;2023-05-25T02:14:31;94482.25;;;23.23;64.36
6090;BME280;3073;42.660;23.316;2023-05-25T02:16:57;94483.72;;;23.41;63.89
6090;BME280;3073;42.660;23.316;2023-05-25T02:19:26;94488.75;;;23.67;62.80
6090;BME280;3073;42.660;23.316;2023-05-25T02:21:52;94494.66;;;23.55;63.02
6090;BME280;3073;42.660;23.316;2023-05-25T02:24:20;94494.91;;;23.83;62.04
6090;BME280;3073;42.660;23.316;2023-05-25T02:26:50;94497.78;;;22.73;65.59
6090;BME280;3073;42.660;23.316;2023-05-25T02:29:17;94506.03;;;22.83;65.91
6090;BME280;3073;42.660;23.316;2023-05-25T02:31:44;94500.47;;;22.30;67.07
6090;BME280;3073;42.660;23.316;2023-05-25T02:34:11;94512.44;;;21.96;69.24
6090;BME280;3073;42.660;23.316;2023-05-25T02:36:38;94514.25;;;21.87;69.38
6090;BME280;3073;42.660;23.316;2023-05-25T02:39:08;94511.63;;;21.70;69.39
6090;BME280;3073;42.660;23.316;2023-05-25T02:41:36;94510.44;;;21.68;70.16
6090;BME280;3073;42.660;23.316;2023-05-25T02:44:04;94517.72;;;21.40;72.95
6090;BME280;3073;42.660;23.316;2023-05-25T02:46:31;94523.88;;;21.61;71.77
6090;BME280;3073;42.660;23.316;2023-05-25T02:48:58;94528.59;;;21.76;70.60
6090;BME280;3073;42.660;23.316;2023-05-25T02:51:25;94532.59;;;22.34;68.13
6090;BME280;3073;42.660;23.316;2023-05-25T02:53:52;94526.88;;;22.66;66.42
6090;BME280;3073;42.660;23.316;2023-05-25T02:56:19;94532.22;;;22.70;65.57
6090;BME280;3073;42.660;23.316;2023-05-25T02:58:47;94526.97;;;22.87;64.93
6090;BME280;3073;42.660;23.316;2023-05-25T03:01:16;94536.13;;;23.01;64.50
6090;BME280;3073;42.660;23.316;2023-05-25T03:03:46;94536.38;;;23.08;64.71
6090;BME280;3073;42.660;23.316;2023-05-25T03:06:17;94536.00;;;23.27;63.50
6090;BME280;3073;42.660;23.316;2023-05-25T03:08:43;94537.63;;;23.40;62.89
6090;BME280;3073;42.660;23.316;2023-05-25T03:11:10;94533.81;;;23.38;62.80
6090;BME280;3073;42.660;23.316;2023-05-25T03:13:37;94539.00;;;23.38;62.40
6090;BME280;3073;42.660;23.316;2023-05-25T03:16:05;94537.34;;;23.33;62.83
6090;BME280;3073;42.660;23.316;2023-05-25T03:18:33;94539.19;;;23.33;62.96
6090;BME280;3073;42.660;23.316;2023-05-25T03:21:00;94542.00;;;23.19;61.53
6090;BME280;3073;42.660;23.316;2023-05-25T03:23:26;94536.38;;;23.46;60.94
6090;BME280;3073;42.660;23.316;2023-05-25T03:26:04;94540.53;;;23.39;61.14
6090;BME280;3073;42.660;23.316;2023-05-25T03:28:37;94540.97;;;23.12;61.51
6090;BME280;3073;42.660;23.316;2023-05-25T03:31:14;94536.72;;;22.98;62.30
6090;BME280;3073;42.660;23.316;2023-05-25T03:33:47;94549.88;;;23.02;62.41
6090;BME280;3073;42.660;23.316;2023-05-25T03:36:19;94547.34;;;23.23;61.67
6090;BME280;3073;42.660;23.316;2023-05-25T03:38:52;94553.19;;;23.20;61.74
6090;BME280;3073;42.660;23.316;2023-05-25T03:41:18;94554.38;;;23.31;61.52
6090;BME280;3073;42.660;23.316;2023-05-25T03:43:46;94551.47;;;23.24;61.71
6090;BME280;3073;42.660;23.316;2023-05-25T03:46:12;94546.72;;;23.26;61.53
6090;BME280;3073;42.660;23.316;2023-05-25T03:48:39;94549.59;;;23.33;61.96
6090;BME280;3073;42.660;23.316;2023-05-25T03:51:07;94546.34;;;23.44;60.90
6090;BME280;3073;42.660;23.316;2023-05-25T03:53:34;94544.03;;;23.51;60.74
6090;BME280;3073;42.660;23.316;2023-05-25T03:56:01;94549.31;;;23.26;61.88
6090;BME280;3073;42.660;23.316;2023-05-25T03:58:28;94555.28;;;22.97;63.23
6090;BME280;3073;42.660;23.316;2023-05-25T04:00:54;94556.59;;;22.39;65.56
6090;BME280;3073;42.660;23.316;2023-05-25T04:03:21;94554.94;;;22.18;66.82
6090;BME280;3073;42.660;23.316;2023-05-25T04:05:48;94557.53;;;22.98;64.32
6090;BME280;3073;42.660;23.316;2023-05-25T04:08:37;94561.69;;;23.67;61.34
6090;BME280;3073;42.660;23.316;2023-05-25T04:11:24;94559.25;;;24.12;60.37
6090;BME280;3073;42.660;23.316;2023-05-25T04:13:51;94565.88;;;24.30;59.62
6090;BME280;3073;42.660;23.316;2023-05-25T04:16:18;94570.66;;;24.28;59.73
6090;BME280;3073;42.660;23.316;2023-05-25T04:18:46;94570.53;;;24.57;59.19
6090;BME280;3073;42.660;23.316;2023-05-25T04:21:13;94574.25;;;24.35;59.44
6090;BME280;3073;42.660;23.316;2023-05-25T04:23:42;94575.53;;;24.83;58.29
6090;BME280;3073;42.660;23.316;2023-05-25T04:26:09;94571.69;;;24.80;58.76
6090;BME280;3073;42.660;23.316;2023-05-25T04:28:36;94585.06;;;25.12;58.16
6090;BME280;3073;42.660;23.316;2023-05-25T04:31:05;94583.31;;;25.40;58.14
6090;BME280;3073;42.660;23.316;2023-05-25T04:33:32;94588.66;;;25.31;58.56
6090;BME280;3073;42.660;23.316;2023-05-25T04:35:58;94588.91;;;25.50;58.59
6090;BME280;3073;42.660;23.316;2023-05-25T04:38:25;94593.78;;;25.64;57.66
6090;BME280;3073;42.660;23.316;2023-05-25T04:40:53;94598.13;;;25.84;57.83
6090;BME280;3073;42.660;23.316;2023-05-25T04:43:22;94602.47;;;26.04;57.13
6090;BME280;3073;42.660;23.316;2023-05-25T04:45:50;94592.56;;;25.98;56.88
6090;BME280;3073;42.660;23.316;2023-05-25T04:48:18;94598.50;;;26.35;55.94
6090;BME280;3073;42.660;23.316;2023-05-25T04:50:46;94593.38;;;26.54;55.80
6090;BME280;3073;42.660;23.316;2023-05-25T04:53:12;94592.81;;;26.60;55.05
6090;BME280;3073;42.660;23.316;2023-05-25T04:55:39;94595.66;;;26.28;55.80
6090;BME280;3073;42.660;23.316;2023-05-25T04:58:08;94583.13;;;25.57;58.33
6090;BME280;3073;42.660;23.316;2023-05-25T05:00:34;94578.06;;;24.71;58.73
6090;BME280;3073;42.660;23.316;2023-05-25T05:03:04;94577.25;;;25.60;57.16
6090;BME280;3073;42.660;23.316;2023-05-25T05:05:31;94581.69;;;25.23;58.17
6090;BME280;3073;42.660;23.316;2023-05-25T05:07:58;94574.91;;;25.10;58.50
6090;BME280;3073;42.660;23.316;2023-05-25T05:10:25;94573.38;;;24.64;59.88
6090;BME280;3073;42.660;23.316;2023-05-25T05:12:52;94581.03;;;23.86;62.82
6090;BME280;3073;42.660;23.316;2023-05-25T05:15:20;94579.06;;;23.83;61.64
6090;BME280;3073;42.660;23.316;2023-05-25T05:17:47;94579.78;;;24.99;59.13
6090;BME280;3073;42.660;23.316;2023-05-25T05:20:14;94580.31;;;24.93;58.96
6090;BME280;3073;42.660;23.316;2023-05-25T05:22:41;94582.63;;;24.94;58.56
6090;BME280;3073;42.660;23.316;2023-05-25T05:25:08;94585.06;;;25.48;57.83
6090;BME280;3073;42.660;23.316;2023-05-25T05:27:35;94582.16;;;24.92;59.50
6090;BME280;3073;42.660;23.316;2023-05-25T05:30:03;94585.06;;;25.84;57.38
6090;BME280;3073;42.660;23.316;2023-05-25T05:32:32;94589.53;;;26.36;55.76
6090;BME280;3073;42.660;23.316;2023-05-25T05:34:59;94590.03;;;26.69;55.16
6090;BME280;3073;42.660;23.316;2023-05-25T05:37:26;94594.47;;;26.53;54.52
6090;BME280;3073;42.660;23.316;2023-05-25T05:39:52;94599.09;;;27.31;53.70
6090;BME280;3073;42.660;23.316;2023-05-25T05:42:19;94594.34;;;27.36;52.85
6090;BME280;3073;42.660;23.316;2023-05-25T05:44:46;94600.78;;;27.23;53.47
6090;BME280;3073;42.660;23.316;2023-05-25T05:47:13;94605.94;;;27.04;52.96
6090;BME280;3073;42.660;23.316;2023-05-25T05:49:41;94604.63;;;28.07;51.69
6090;BME280;3073;42.660;23.316;2023-05-25T05:52:08;94606.22;;;27.61;52.59
6090;BME280;3073;42.660;23.316;2023-05-25T05:54:35;94613.88;;;27.70;52.66
6090;BME280;3073;42.660;23.316;2023-05-25T05:57:02;94611.09;;;27.63;52.12
6090;BME280;3073;42.660;23.316;2023-05-25T05:59:29;94611.75;;;28.64;50.64
6090;BME280;3073;42.660;23.316;2023-05-25T06:01:56;94609.63;;;29.12;49.36
6090;BME280;3073;42.660;23.316;2023-05-25T06:04:23;94610.28;;;29.77;47.36
6090;BME280;3073;42.660;23.316;2023-05-25T06:06:54;94608.59;;;29.88;45.95
6090;BME280;3073;42.660;23.316;2023-05-25T06:09:21;94615.38;;;30.79;44.49
6090;BME280;3073;42.660;23.316;2023-05-25T06:11:52;94613.16;;;30.47;44.49
6090;BME280;3073;42.660;23.316;2023-05-25T06:14:18;94605.38;;;30.95;43.90
6090;BME280;3073;42.660;23.316;2023-05-25T06:16:46;94602.56;;;30.44;43.98
6090;BME280;3073;42.660;23.316;2023-05-25T06:19:12;94610.78;;;30.12;44.59
6090;BME280;3073;42.660;23.316;2023-05-25T06:21:39;94612.00;;;29.66;45.67
6090;BME280;3073;42.660;23.316;2023-05-25T06:24:07;94615.00;;;30.80;43.58
6090;BME280;3073;42.660;23.316;2023-05-25T06:26:34;94610.63;;;31.79;42.73
6090;BME280;3073;42.660;23.316;2023-05-25T06:29:01;94618.00;;;31.56;42.28
6090;BME280;3073;42.660;23.316;2023-05-25T06:31:28;94619.28;;;32.41;41.05
6090;BME280;3073;42.660;23.316;2023-05-25T06:33:55;94625.22;;;33.53;39.34
6090;BME280;3073;42.660;23.316;2023-05-25T06:36:22;94617.59;;;33.02;40.14
6090;BME280;3073;42.660;23.316;2023-05-25T06:38:49;94620.63;;;33.04;39.92
6090;BME280;3073;42.660;23.316;2023-05-25T06:41:18;94615.72;;;31.10;42.11
6090;BME280;3073;42.660;23.316;2023-05-25T06:43:44;94616.44;;;32.02;41.84
6090;BME280;3073;42.660;23.316;2023-05-25T06:46:11;94624.41;;;32.09;41.86
6090;BME280;3073;42.660;23.316;2023-05-25T06:48:42;94620.94;;;31.47;41.79
6090;BME280;3073;42.660;23.316;2023-05-25T06:51:09;94623.53;;;32.60;41.23
6090;BME280;3073;42.660;23.316;2023-05-25T06:53:36;94619.50;;;34.25;38.78
6090;BME280;3073;42.660;23.316;2023-05-25T06:56:04;94626.53;;;31.90;41.91
6090;BME280;3073;42.660;23.316;2023-05-25T06:58:37;94619.53;;;31.17;43.12
6090;BME280;3073;42.660;23.316;2023-05-25T07:01:04;94627.75;;;30.75;43.68
6090;BME280;3073;42.660;23.316;2023-05-25T07:03:31;94624.91;;;32.36;42.57
6090;BME280;3073;42.660;23.316;2023-05-25T07:06:01;94627.72;;;32.68;41.53
6090;BME280;3073;42.660;23.316;2023-05-25T07:08:28;94619.34;;;31.87;42.38
6090;BME280;3073;42.660;23.316;2023-05-25T07:10:55;94622.91;;;33.09;41.85
6090;BME280;3073;42.660;23.316;2023-05-25T07:13:22;94617.97;;;33.00;41.81
6090;BME280;3073;42.660;23.316;2023-05-25T07:15:53;94610.88;;;33.29;41.20
6090;BME280;3073;42.660;23.316;2023-05-25T07:18:20;94611.22;;;33.88;40.95
6090;BME280;3073;42.660;23.316;2023-05-25T07:20:47;94607.22;;;31.75;43.45
6090;BME280;3073;42.660;23.316;2023-05-25T07:23:13;94615.72;;;33.02;42.52
6090;BME280;3073;42.660;23.316;2023-05-25T07:25:40;94613.06;;;32.95;42.02
6090;BME280;3073;42.660;23.316;2023-05-25T07:28:07;94624.75;;;32.87;41.60
6090;BME280;3073;42.660;23.316;2023-05-25T07:30:34;94626.25;;;32.81;41.71
6090;BME280;3073;42.660;23.316;2023-05-25T07:33:04;94626.22;;;34.47;39.24
6090;BME280;3073;42.660;23.316;2023-05-25T07:35:32;94615.41;;;33.68;40.63
6090;BME280;3073;42.660;23.316;2023-05-25T07:38:01;94619.53;;;33.86;40.77
6090;BME280;3073;42.660;23.316;2023-05-25T07:40:29;94627.72;;;34.55;39.62
6090;BME280;3073;42.660;23.316;2023-05-25T07:42:56;94625.22;;;34.02;40.81
6090;BME280;3073;42.660;23.316;2023-05-25T07:45:23;94628.22;;;33.16;41.30
6090;BME280;3073;42.660;23.316;2023-05-25T07:47:50;94625.53;;;32.98;42.01
6090;BME280;3073;42.660;23.316;2023-05-25T07:50:18;94626.91;;;31.41;43.58
6090;BME280;3073;42.660;23.316;2023-05-25T07:52:45;94621.78;;;31.14;43.18
6090;BME280;3073;42.660;23.316;2023-05-25T07:55:12;94622.41;;;29.59;45.90
6090;BME280;3073;42.660;23.316;2023-05-25T07:57:39;94624.06;;;29.93;45.34
6090;BME280;3073;42.660;23.316;2023-05-25T08:00:09;94631.19;;;27.90;48.26
6090;BME280;3073;42.660;23.316;2023-05-25T08:02:36;94640.69;;;28.49;47.74
6090;BME280;3073;42.660;23.316;2023-05-25T08:05:03;94633.00;;;29.62;46.76
6090;BME280;3073;42.660;23.316;2023-05-25T08:07:33;94635.91;;;29.80;46.10
6090;BME280;3073;42.660;23.316;2023-05-25T08:10:00;94645.63;;;28.50;47.95
6090;BME280;3073;42.660;23.316;2023-05-25T08:12:28;94639.19;;;28.86;47.69
6090;BME280;3073;42.660;23.316;2023-05-25T08:14:55;94643.09;;;29.83;46.07
6090;BME280;3073;42.660;23.316;2023-05-25T08:17:21;94653.06;;;29.97;45.56
6090;BME280;3073;42.660;23.316;2023-05-25T08:19:49;94664.22;;;29.64;46.58
6090;BME280;3073;42.660;23.316;2023-05-25T08:22:16;94668.03;;;29.02;46.35
6090;BME280;3073;42.660;23.316;2023-05-25T08:24:44;94679.69;;;28.12;46.98
6090;BME280;3073;42.660;23.316;2023-05-25T08:27:11;94681.38;;;28.20;47.49
6090;BME280;3073;42.660;23.316;2023-05-25T08:29:37;94676.41;;;27.68;49.63
6090;BME280;3073;42.660;23.316;2023-05-25T08:32:05;94696.25;;;28.16;49.88
6090;BME280;3073;42.660;23.316;2023-05-25T08:34:31;94692.84;;;27.65;51.72
6090;BME280;3073;42.660;23.316;2023-05-25T08:36:58;94693.16;;;27.48;52.67
6090;BME280;3073;42.660;23.316;2023-05-25T08:39:25;94705.69;;;27.70;51.52
6090;BME280;3073;42.660;23.316;2023-05-25T08:42:01;94700.31;;;27.35;52.06
6090;BME280;3073;42.660;23.316;2023-05-25T08:44:31;94700.34;;;28.48;50.25
6090;BME280;3073;42.660;23.316;2023-05-25T08:47:04;94709.31;;;27.97;53.74
6090;BME280;3073;42.660;23.316;2023-05-25T08:49:37;94705.50;;;27.20;57.48
6090;BME280;3073;42.660;23.316;2023-05-25T08:52:11;94711.97;;;26.94;61.98
6090;BME280;3073;42.660;23.316;2023-05-25T08:54:42;94706.66;;;26.27;69.01
6090;BME280;3073;42.660;23.316;2023-05-25T08:57:14;94716.50;;;25.48;70.91
6090;BME280;3073;42.660;23.316;2023-05-25T08:59:50;94716.09;;;25.26;69.00
6090;BME280;3073;42.660;23.316;2023-05-25T09:02:22;94723.53;;;24.41;73.17
6090;BME280;3073;42.660;23.316;2023-05-25T09:05:15;94717.06;;;24.09;72.87
6090;BME280;3073;42.660;23.316;2023-05-25T09:07:48;94731.63;;;24.89;75.93
6090;BME280;3073;42.660;23.316;2023-05-25T09:10:19;94731.16;;;25.41;73.58
6090;BME280;3073;42.660;23.316;2023-05-25T09:12:48;94729.09;;;25.46;73.16
6090;BME280;3073;42.660;23.316;2023-05-25T09:15:32;94735.78;;;25.23;74.94
6090;BME280;3073;42.660;23.316;2023-05-25T09:18:19;94729.53;;;25.03;70.68
6090;BME280;3073;42.660;23.316;2023-05-25T09:20:49;94728.19;;;24.97;73.37
6090;BME280;3073;42.660;23.316;2023-05-25T09:23:16;94722.59;;;25.07;75.20
6090;BME280;3073;42.660;23.316;2023-05-25T09:25:50;94729.28;;;25.29;75.64
6090;BME280;3073;42.660;23.316;2023-05-25T09:28:19;94727.34;;;25.38;78.41
6090;BME280;3073;42.660;23.316;2023-05-25T09:31:22;94724.97;;;25.13;75.35
6090;BME280;3073;42.660;23.316;2023-05-25T09:33:56;94725.28;;;24.49;84.22
6090;BME280;3073;42.660;23.316;2023-05-25T09:36:41;94713.50;;;24.22;82.19
6090;BME280;3073;42.660;23.316;2023-05-25T09:39:16;94714.13;;;24.19;86.38
6090;BME280;3073;42.660;23.316;2023-05-25T09:41:43;94709.50;;;23.32;92.33
6090;BME280;3073;42.660;23.316;2023-05-25T09:44:13;94707.97;;;23.94;95.42
6090;BME280;3073;42.660;23.316;2023-05-25T09:46:43;94711.56;;;23.18;93.70
6090;BME280;3073;42.660;23.316;2023-05-25T09:49:21;94699.31;;;23.09;99.85
6090;BME280;3073;42.660;23.316;2023-05-25T09:51:52;94699.47;;;23.04;100.00
6090;BME280;3073;42.660;23.316;2023-05-25T09:54:38;94691.41;;;23.90;97.36
6090;BME280;3073;42.660;23.316;2023-05-25T09:57:17;94691.09;;;24.92;89.62
6090;BME280;3073;42.660;23.316;2023-05-25T09:59:49;94694.94;;;25.19;86.34
6090;BME280;3073;42.660;23.316;2023-05-25T10:02:16;94686.25;;;25.15;82.81
6090;BME280;3073;42.660;23.316;2023-05-25T10:04:43;94695.34;;;25.41;80.04
6090;BME280;3073;42.660;23.316;2023-05-25T10:07:13;94679.38;;;25.10;76.17
6090;BME280;3073;42.660;23.316;2023-05-25T10:09:45;94690.81;;;26.47;76.31
6090;BME280;3073;42.660;23.316;2023-05-25T10:12:16;94688.72;;;27.36;80.97
6090;BME280;3073;42.660;23.316;2023-05-25T10:14:49;94683.97;;;27.26;76.35
6090;BME280;3073;42.660;23.316;2023-05-25T10:17:21;94685.34;;;28.14;75.72
6090;BME280;3073;42.660;23.316;2023-05-25T10:19:53;94672.09;;;28.42;71.31
6090;BME280;3073;42.660;23.316;2023-05-25T10:22:25;94677.63;;;28.94;67.01
6090;BME280;3073;42.660;23.316;2023-05-25T10:24:59;94667.84;;;29.14;64.10
6090;BME280;3073;42.660;23.316;2023-05-25T10:27:33;94671.16;;;29.30;60.92
6090;BME280;3073;42.660;23.316;2023-05-25T10:30:07;94662.78;;;29.93;61.14
6090;BME280;3073;42.660;23.316;2023-05-25T10:32:35;94659.66;;;28.96;56.92
6090;BME280;3073;42.660;23.316;2023-05-25T10:35:04;94660.13;;;28.09;60.96
6090;BME280;3073;42.660;23.316;2023-05-25T10:37:32;94660.88;;;28.45;61.77
6090;BME280;3073;42.660;23.316;2023-05-25T10:40:00;94649.78;;;29.12;59.53
6090;BME280;3073;42.660;23.316;2023-05-25T10:42:28;94637.00;;;28.88;59.73
6090;BME280;3073;42.660;23.316;2023-05-25T10:44:56;94649.38;;;28.69;58.03
6090;BME280;3073;42.660;23.316;2023-05-25T10:47:24;94633.28;;;28.16;58.94
6090;BME280;3073;42.660;23.316;2023-05-25T10:49:59;94628.94;;;29.00;57.80
6090;BME280;3073;42.660;23.316;2023-05-25T10:52:30;94617.84;;;29.79;56.51
6090;BME280;3073;42.660;23.316;2023-05-25T10:54:59;94616.13;;;29.18;55.70
6090;BME280;3073;42.660;23.316;2023-05-25T10:57:30;94616.44;;;28.94;56.90
6090;BME280;3073;42.660;23.316;2023-05-25T11:00:04;94614.13;;;29.57;57.08
6090;BME280;3073;42.660;23.316;2023-05-25T11:02:51;94608.56;;;28.94;53.98
6090;BME280;3073;42.660;23.316;2023-05-25T11:05:40;94613.34;;;28.11;54.75
6090;BME280;3073;42.660;23.316;2023-05-25T11:08:08;94606.63;;;28.33;56.80
6090;BME280;3073;42.660;23.316;2023-05-25T11:10:51;94610.72;;;28.50;56.89
6090;BME280;3073;42.660;23.316;2023-05-25T11:13:32;94611.47;;;28.89;54.28
6090;BME280;3073;42.660;23.316;2023-05-25T11:16:19;94616.84;;;29.38;53.87
6090;BME280;3073;42.660;23.316;2023-05-25T11:18:55;94612.97;;;29.81;53.86
6090;BME280;3073;42.660;23.316;2023-05-25T11:21:44;94615.47;;;29.96;51.86
6090;BME280;3073;42.660;23.316;2023-05-25T11:24:16;94617.38;;;29.99;52.34
6090;BME280;3073;42.660;23.316;2023-05-25T11:26:57;94618.69;;;30.12;51.76
6090;BME280;3073;42.660;23.316;2023-05-25T11:29:29;94616.69;;;29.08;51.42
6090;BME280;3073;42.660;23.316;2023-05-25T11:31:57;94618.66;;;27.99;53.48
6090;BME280;3073;42.660;23.316;2023-05-25T11:34:33;94616.66;;;28.47;53.30
6090;BME280;3073;42.660;23.316;2023-05-25T11:37:00;94617.88;;;27.64;54.93
6090;BME280;3073;42.660;23.316;2023-05-25T11:39:45;94617.84;;;27.95;55.86
6090;BME280;3073;42.660;23.316;2023-05-25T11:42:14;94616.94;;;28.61;53.82
6090;BME280;3073;42.660;23.316;2023-05-25T11:44:42;94613.63;;;29.06;52.89
6090;BME280;3073;42.660;23.316;2023-05-25T11:47:18;94611.13;;;29.13;52.07
6090;BME280;3073;42.660;23.316;2023-05-25T11:49:54;94618.44;;;29.23;50.90
6090;BME280;3073;42.660;23.316;2023-05-25T11:52:22;94616.50;;;29.20;51.45
6090;BME280;3073;42.660;23.316;2023-05-25T11:54:49;94617.66;;;29.42;52.19
6090;BME280;3073;42.660;23.316;2023-05-25T11:57:18;94617.69;;;29.68;50.81
6090;BME280;3073;42.660;23.316;2023-05-25T11:59:47;94613.44;;;29.86;51.94
6090;BME280;3073;42.660;23.316;2023-05-25T12:02:15;94605.41;;;29.07;50.42
6090;BME280;3073;42.660;23.316;2023-05-25T12:04:53;94601.38;;;29.59;51.07
6090;BME280;3073;42.660;23.316;2023-05-25T12:07:20;94603.03;;;30.23;49.99
6090;BME280;3073;42.660;23.316;2023-05-25T12:09:47;94599.38;;;29.52;50.74
6090;BME280;3073;42.660;23.316;2023-05-25T12:12:14;94600.41;;;30.53;50.36
6090;BME280;3073;42.660;23.316;2023-05-25T12:14:45;94596.66;;;30.54;49.59
6090;BME280;3073;42.660;23.316;2023-05-25T12:17:12;94601.22;;;31.34;47.06
6090;BME280;3073;42.660;23.316;2023-05-25T12:19:40;94605.44;;;30.98;49.41
6090;BME280;3073;42.660;23.316;2023-05-25T12:22:09;94601.31;;;32.75;46.46
6090;BME280;3073;42.660;23.316;2023-05-25T12:24:36;94601.75;;;33.97;44.08
6090;BME280;3073;42.660;23.316;2023-05-25T12:27:03;94588.94;;;33.50;42.18
6090;BME280;3073;42.660;23.316;2023-05-25T12:29:31;94580.88;;;34.28;40.81
6090;BME280;3073;42.660;23.316;2023-05-25T12:32:04;94573.41;;;33.73;42.00
6090;BME280;3073;42.660;23.316;2023-05-25T12:34:32;94583.47;;;34.38;39.03
6090;BME280;3073;42.660;23.316;2023-05-25T12:37:01;94573.91;;;34.69;38.33
6090;BME280;3073;42.660;23.316;2023-05-25T12:39:36;94573.78;;;35.42;37.16
6090;BME280;3073;42.660;23.316;2023-05-25T12:42:11;94571.44;;;35.92;36.45
6090;BME280;3073;42.660;23.316;2023-05-25T12:44:39;94567.75;;;35.82;35.14
6090;BME280;3073;42.660;23.316;2023-05-25T12:47:11;94560.81;;;34.99;36.86
6090;BME280;3073;42.660;23.316;2023-05-25T12:49:39;94553.59;;;34.31;37.03
6090;BME280;3073;42.660;23.316;2023-05-25T12:52:07;94547.56;;;34.20;35.95
6090;BME280;3073;42.660;23.316;2023-05-25T12:54:45;94542.44;;;34.71;36.27
6090;BME280;3073;42.660;23.316;2023-05-25T12:57:15;94538.72;;;35.17;35.51
6090;BME280;3073;42.660;23.316;2023-05-25T12:59:44;94536.28;;;34.85;36.64
6090;BME280;3073;42.660;23.316;2023-05-25T13:02:11;94533.00;;;36.34;34.16
6090;BME280;3073;42.660;23.316;2023-05-25T13:04:41;94528.84;;;35.65;34.34
6090;BME280;3073;42.660;23.316;2023-05-25T13:07:09;94515.59;;;33.43;36.66
6090;BME280;3073;42.660;23.316;2023-05-25T13:09:36;94517.19;;;34.45;36.73
6090;BME280;3073;42.660;23.316;2023-05-25T13:12:05;94515.91;;;33.81;36.82
6090;BME280;3073;42.660;23.316;2023-05-25T13:14:32;94516.75;;;35.16;35.49
6090;BME280;3073;42.660;23.316;2023-05-25T13:17:02;94507.88;;;34.09;33.96
6090;BME280;3073;42.660;23.316;2023-05-25T13:19:32;94505.19;;;32.07;35.59
6090;BME280;3073;42.660;23.316;2023-05-25T13:21:58;94499.84;;;31.28;37.39